ICAO code: LHPR | IATA code: QGY | AFTN: LHPRZPZX | english | deutsch
Időjárás: 2019-05-24 14:40 (UTC) | Hőmérséklet: 20.2 °C | QNH: 1012.7 hPa | Szél: 5.6 m/s | Részletek
Live ATC LHPR
Webkameránk élőképe

Győr-Pér Repülőtér időjárás adatok

Metar:
METAR LHPR 241445Z AUTO 33012KT CAVOK 21/09 Q101


Taf:
TAF LHPR 241415Z 2415/2424 33012KT CAVOK
BECMG 2415/2418 33007KT


Jelenidő:
Nem volt érdemleges időjárási jelenség az elmúlt órában
Időbélyeg: 2019-05-24 14:40:00 UTC
Hőmérséklet:
20.2 °C
 
Harmatpont:
9.3 °C
 
Rel. páratartalom:
50%
 
QNH:
1012.7 hPa
 
Szélsebesség:
5.6 m/s
Max:
8.6 m/s
Szélirány:
330°
 
Csapadék (1 óra):
0.0 mm
 
Látótávolság:
20000 m
 
RVR:
>1500 m RWY30
 
1. felhőréteg mennyisége:
4 octa
 
1. felhőréteg alapja:
1530 m


Az adatokat szolgáltatja
az Országos Meteorológiai Szolgálat
Győr-Pér Repülőtér | H 9099 Pér, Repülőtér | Tel: +36/96/559-200 | Fax: +36/96/559-202

ICAO code: LHPR | IATA code: QGY | AFTN: LHPRZPZX


weboldal tervezés: IRQ